sensor_id;sensor_type;location;lat;lon;timestamp;pressure;altitude;pressure_sealevel;temperature;humidity
3968;BME280;9221;42.646;23.380;2023-02-02T00:00:29;94577.69;;;5.89;55.34
3968;BME280;9221;42.646;23.380;2023-02-02T00:02:54;94576.03;;;5.88;55.88
3968;BME280;9221;42.646;23.380;2023-02-02T00:05:20;94524.94;;;5.61;55.14
3968;BME280;9221;42.646;23.380;2023-02-02T00:07:45;94568.31;;;5.98;54.62
3968;BME280;9221;42.646;23.380;2023-02-02T00:10:11;94468.88;;;5.31;54.90
3968;BME280;9221;42.646;23.380;2023-02-02T00:12:36;94585.53;;;5.89;54.59
3968;BME280;9221;42.646;23.380;2023-02-02T00:15:01;94566.50;;;5.98;54.41
3968;BME280;9221;42.646;23.380;2023-02-02T00:17:27;94574.78;;;6.15;54.42
3968;BME280;9221;42.646;23.380;2023-02-02T00:19:52;94566.00;;;6.16;53.94
3968;BME280;9221;42.646;23.380;2023-02-02T00:22:17;94562.91;;;6.10;54.00
3968;BME280;9221;42.646;23.380;2023-02-02T00:24:43;94576.00;;;6.10;54.04
3968;BME280;9221;42.646;23.380;2023-02-02T00:27:08;94555.09;;;5.99;53.61
3968;BME280;9221;42.646;23.380;2023-02-02T00:29:34;94591.22;;;6.17;54.08
3968;BME280;9221;42.646;23.380;2023-02-02T00:31:59;94556.50;;;6.03;54.05
3968;BME280;9221;42.646;23.380;2023-02-02T00:34:24;94582.88;;;6.23;53.71
3968;BME280;9221;42.646;23.380;2023-02-02T00:36:50;94580.31;;;6.00;53.88
3968;BME280;9221;42.646;23.380;2023-02-02T00:39:21;94517.66;;;5.76;54.15
3968;BME280;9221;42.646;23.380;2023-02-02T00:41:49;94580.75;;;6.05;54.61
3968;BME280;9221;42.646;23.380;2023-02-02T00:44:14;94585.53;;;6.12;54.85
3968;BME280;9221;42.646;23.380;2023-02-02T00:46:58;94591.97;;;6.07;54.92
3968;BME280;9221;42.646;23.380;2023-02-02T00:49:24;94543.22;;;5.72;54.59
3968;BME280;9221;42.646;23.380;2023-02-02T00:51:49;94591.50;;;6.02;55.14
3968;BME280;9221;42.646;23.380;2023-02-02T00:54:15;94523.72;;;5.76;54.79
3968;BME280;9221;42.646;23.380;2023-02-02T00:56:41;94534.41;;;5.73;55.19
3968;BME280;9221;42.646;23.380;2023-02-02T00:59:06;94621.47;;;5.98;55.80
3968;BME280;9221;42.646;23.380;2023-02-02T01:01:31;94581.50;;;5.85;56.58
3968;BME280;9221;42.646;23.380;2023-02-02T01:03:57;94533.97;;;5.57;57.08
3968;BME280;9221;42.646;23.380;2023-02-02T01:06:23;94526.59;;;5.62;57.53
3968;BME280;9221;42.646;23.380;2023-02-02T01:08:48;94521.84;;;5.56;57.57
3968;BME280;9221;42.646;23.380;2023-02-02T01:11:14;94580.28;;;5.89;57.74
3968;BME280;9221;42.646;23.380;2023-02-02T01:13:40;94572.69;;;5.86;58.43
3968;BME280;9221;42.646;23.380;2023-02-02T01:16:06;94509.88;;;5.42;58.99
3968;BME280;9221;42.646;23.380;2023-02-02T01:18:31;94580.78;;;5.83;59.33
3968;BME280;9221;42.646;23.380;2023-02-02T01:20:58;94514.03;;;5.45;60.19
3968;BME280;9221;42.646;23.380;2023-02-02T01:23:23;94437.31;;;4.89;59.94
3968;BME280;9221;42.646;23.380;2023-02-02T01:25:57;94579.84;;;5.72;60.04
3968;BME280;9221;42.646;23.380;2023-02-02T01:28:23;94601.22;;;5.89;60.09
3968;BME280;9221;42.646;23.380;2023-02-02T01:30:48;94563.66;;;5.90;60.35
3968;BME280;9221;42.646;23.380;2023-02-02T01:33:15;94509.75;;;5.43;60.20
3968;BME280;9221;42.646;23.380;2023-02-02T01:35:45;94549.03;;;5.76;60.74
3968;BME280;9221;42.646;23.380;2023-02-02T01:38:10;94582.47;;;5.84;60.39
3968;BME280;9221;42.646;23.380;2023-02-02T01:40:36;94498.56;;;5.53;60.41
3968;BME280;9221;42.646;23.380;2023-02-02T01:43:01;94480.97;;;5.43;60.19
3968;BME280;9221;42.646;23.380;2023-02-02T01:45:27;94542.75;;;5.79;60.73
3968;BME280;9221;42.646;23.380;2023-02-02T01:47:56;94539.91;;;5.70;60.91
3968;BME280;9221;42.646;23.380;2023-02-02T01:50:27;94552.97;;;5.82;60.09
3968;BME280;9221;42.646;23.380;2023-02-02T01:52:55;94533.44;;;5.86;60.03
3968;BME280;9221;42.646;23.380;2023-02-02T01:55:25;94471.00;;;5.37;60.32
3968;BME280;9221;42.646;23.380;2023-02-02T01:57:57;94511.59;;;5.64;61.00
3968;BME280;9221;42.646;23.380;2023-02-02T02:00:24;94464.97;;;5.25;60.38
3968;BME280;9221;42.646;23.380;2023-02-02T02:02:55;94458.91;;;5.14;60.29
3968;BME280;9221;42.646;23.380;2023-02-02T02:05:28;94521.75;;;5.46;60.86
3968;BME280;9221;42.646;23.380;2023-02-02T02:07:59;94515.81;;;5.33;61.50
3968;BME280;9221;42.646;23.380;2023-02-02T02:10:26;94523.31;;;5.37;62.04
3968;BME280;9221;42.646;23.380;2023-02-02T02:12:51;94458.94;;;4.91;62.23
3968;BME280;9221;42.646;23.380;2023-02-02T02:15:17;94521.28;;;5.18;62.50
3968;BME280;9221;42.646;23.380;2023-02-02T02:18:11;94502.88;;;4.86;62.82
3968;BME280;9221;42.646;23.380;2023-02-02T02:21:11;94566.81;;;5.16;62.57
3968;BME280;9221;42.646;23.380;2023-02-02T02:27:39;94541.72;;;5.13;62.20
3968;BME280;9221;42.646;23.380;2023-02-02T02:33:14;94568.56;;;5.15;62.54
3968;BME280;9221;42.646;23.380;2023-02-02T02:36:02;94457.25;;;4.67;62.07
3968;BME280;9221;42.646;23.380;2023-02-02T02:38:44;94532.44;;;5.20;61.77
3968;BME280;9221;42.646;23.380;2023-02-02T02:41:33;94544.59;;;5.10;62.39
3968;BME280;9221;42.646;23.380;2023-02-02T02:44:03;94528.16;;;5.19;61.88
3968;BME280;9221;42.646;23.380;2023-02-02T02:46:30;94500.25;;;4.97;61.41
3968;BME280;9221;42.646;23.380;2023-02-02T02:48:57;94519.75;;;5.16;61.63
3968;BME280;9221;42.646;23.380;2023-02-02T02:51:42;94515.47;;;5.03;60.85
3968;BME280;9221;42.646;23.380;2023-02-02T02:54:12;94490.88;;;4.95;61.27
3968;BME280;9221;42.646;23.380;2023-02-02T02:59:41;94456.78;;;4.73;60.97
3968;BME280;9221;42.646;23.380;2023-02-02T03:02:34;94530.69;;;5.21;60.54
3968;BME280;9221;42.646;23.380;2023-02-02T03:08:00;94455.34;;;4.92;61.10
3968;BME280;9221;42.646;23.380;2023-02-02T03:10:29;94469.38;;;4.91;61.11
3968;BME280;9221;42.646;23.380;2023-02-02T03:12:56;94526.16;;;5.23;61.00
3968;BME280;9221;42.646;23.380;2023-02-02T03:15:22;94542.09;;;5.20;61.47
3968;BME280;9221;42.646;23.380;2023-02-02T03:17:49;94564.88;;;5.18;61.35
3968;BME280;9221;42.646;23.380;2023-02-02T03:20:16;94503.34;;;5.02;61.41
3968;BME280;9221;42.646;23.380;2023-02-02T03:22:41;94516.19;;;5.17;61.81
3968;BME280;9221;42.646;23.380;2023-02-02T03:25:07;94554.22;;;5.21;61.72
3968;BME280;9221;42.646;23.380;2023-02-02T03:27:36;94522.84;;;5.21;61.38
3968;BME280;9221;42.646;23.380;2023-02-02T03:30:04;94517.38;;;5.24;61.20
3968;BME280;9221;42.646;23.380;2023-02-02T03:32:30;94507.16;;;5.09;61.46
3968;BME280;9221;42.646;23.380;2023-02-02T03:34:55;94522.13;;;5.19;61.80
3968;BME280;9221;42.646;23.380;2023-02-02T03:37:20;94584.22;;;4.81;61.65
3968;BME280;9221;42.646;23.380;2023-02-02T03:39:46;94410.00;;;4.48;61.70
3968;BME280;9221;42.646;23.380;2023-02-02T03:42:11;94551.13;;;5.16;61.38
3968;BME280;9221;42.646;23.380;2023-02-02T03:44:36;94452.03;;;4.67;61.88
3968;BME280;9221;42.646;23.380;2023-02-02T03:47:02;94521.88;;;5.11;61.09
3968;BME280;9221;42.646;23.380;2023-02-02T03:49:27;94559.41;;;4.98;62.21
3968;BME280;9221;42.646;23.380;2023-02-02T03:51:52;94526.16;;;5.00;62.38
3968;BME280;9221;42.646;23.380;2023-02-02T03:54:18;94533.84;;;4.90;62.37
3968;BME280;9221;42.646;23.380;2023-02-02T03:56:43;94531.59;;;4.74;62.50
3968;BME280;9221;42.646;23.380;2023-02-02T03:59:08;94534.72;;;4.91;62.87
3968;BME280;9221;42.646;23.380;2023-02-02T04:01:34;94550.63;;;4.99;63.33
3968;BME280;9221;42.646;23.380;2023-02-02T04:03:59;94539.44;;;4.97;63.30
3968;BME280;9221;42.646;23.380;2023-02-02T04:06:25;94535.41;;;4.93;63.82
3968;BME280;9221;42.646;23.380;2023-02-02T04:08:50;94520.09;;;4.77;64.73
3968;BME280;9221;42.646;23.380;2023-02-02T04:11:17;94488.69;;;4.54;64.45
3968;BME280;9221;42.646;23.380;2023-02-02T04:13:42;94474.53;;;4.34;64.91
3968;BME280;9221;42.646;23.380;2023-02-02T04:16:08;94552.94;;;4.68;65.53
3968;BME280;9221;42.646;23.380;2023-02-02T04:18:34;94568.09;;;4.52;65.98
3968;BME280;9221;42.646;23.380;2023-02-02T04:21:04;94508.81;;;4.30;66.41
3968;BME280;9221;42.646;23.380;2023-02-02T04:23:30;94577.47;;;4.43;66.33
3968;BME280;9221;42.646;23.380;2023-02-02T04:25:56;94533.50;;;4.37;66.90
3968;BME280;9221;42.646;23.380;2023-02-02T04:28:22;94551.91;;;4.35;66.58
3968;BME280;9221;42.646;23.380;2023-02-02T04:30:49;94475.88;;;4.04;66.64
3968;BME280;9221;42.646;23.380;2023-02-02T04:33:15;94640.91;;;4.32;67.07
3968;BME280;9221;42.646;23.380;2023-02-02T04:35:41;94572.47;;;4.16;66.57
3968;BME280;9221;42.646;23.380;2023-02-02T04:38:07;94493.66;;;3.99;66.54
3968;BME280;9221;42.646;23.380;2023-02-02T04:40:32;94463.84;;;3.90;66.76
3968;BME280;9221;42.646;23.380;2023-02-02T04:42:57;94541.03;;;4.42;66.40
3968;BME280;9221;42.646;23.380;2023-02-02T04:45:23;94528.53;;;4.34;66.51
3968;BME280;9221;42.646;23.380;2023-02-02T04:47:49;94541.59;;;4.34;66.05
3968;BME280;9221;42.646;23.380;2023-02-02T04:50:15;94564.03;;;4.36;66.23
3968;BME280;9221;42.646;23.380;2023-02-02T04:52:40;94500.25;;;3.92;66.69
3968;BME280;9221;42.646;23.380;2023-02-02T04:55:06;94560.69;;;4.34;66.58
3968;BME280;9221;42.646;23.380;2023-02-02T04:57:31;94597.44;;;4.31;66.36
3968;BME280;9221;42.646;23.380;2023-02-02T04:59:57;94553.81;;;4.33;65.74
3968;BME280;9221;42.646;23.380;2023-02-02T05:02:22;94566.38;;;4.28;65.74
3968;BME280;9221;42.646;23.380;2023-02-02T05:04:48;94495.81;;;4.05;65.55
3968;BME280;9221;42.646;23.380;2023-02-02T05:07:13;94546.91;;;4.32;65.43
3968;BME280;9221;42.646;23.380;2023-02-02T05:09:38;94562.72;;;4.42;65.27
3968;BME280;9221;42.646;23.380;2023-02-02T05:12:04;94566.50;;;4.38;65.08
3968;BME280;9221;42.646;23.380;2023-02-02T05:14:29;94567.34;;;4.38;65.22
3968;BME280;9221;42.646;23.380;2023-02-02T05:16:55;94556.31;;;4.35;65.68
3968;BME280;9221;42.646;23.380;2023-02-02T05:19:20;94560.47;;;4.37;65.81
3968;BME280;9221;42.646;23.380;2023-02-02T05:21:45;94531.94;;;4.23;65.77
3968;BME280;9221;42.646;23.380;2023-02-02T05:24:13;94493.72;;;3.86;64.06
3968;BME280;9221;42.646;23.380;2023-02-02T05:26:38;94501.91;;;3.93;64.13
3968;BME280;9221;42.646;23.380;2023-02-02T05:29:03;94544.03;;;4.24;65.08
3968;BME280;9221;42.646;23.380;2023-02-02T05:31:31;94538.75;;;4.13;65.35
3968;BME280;9221;42.646;23.380;2023-02-02T05:33:56;94539.50;;;4.15;65.57
3968;BME280;9221;42.646;23.380;2023-02-02T05:36:22;94561.41;;;4.12;65.76
3968;BME280;9221;42.646;23.380;2023-02-02T05:38:47;94565.69;;;4.13;66.52
3968;BME280;9221;42.646;23.380;2023-02-02T05:41:13;94448.06;;;3.32;66.66
3968;BME280;9221;42.646;23.380;2023-02-02T05:43:38;94503.91;;;3.41;68.80
3968;BME280;9221;42.646;23.380;2023-02-02T05:46:03;94527.59;;;3.25;69.79
3968;BME280;9221;42.646;23.380;2023-02-02T05:48:29;94566.19;;;3.20;70.75
3968;BME280;9221;42.646;23.380;2023-02-02T05:51:00;94522.56;;;2.85;72.07
3968;BME280;9221;42.646;23.380;2023-02-02T05:53:29;94520.66;;;2.87;73.10
3968;BME280;9221;42.646;23.380;2023-02-02T05:55:55;94605.88;;;2.85;73.34
3968;BME280;9221;42.646;23.380;2023-02-02T05:58:20;94509.22;;;2.77;73.29
3968;BME280;9221;42.646;23.380;2023-02-02T06:00:45;94510.06;;;2.64;73.37
3968;BME280;9221;42.646;23.380;2023-02-02T06:03:11;94520.25;;;2.67;73.78
3968;BME280;9221;42.646;23.380;2023-02-02T06:05:37;94565.88;;;2.73;74.34
3968;BME280;9221;42.646;23.380;2023-02-02T06:08:03;94585.28;;;2.82;74.85
3968;BME280;9221;42.646;23.380;2023-02-02T06:10:28;94535.13;;;2.52;74.74
3968;BME280;9221;42.646;23.380;2023-02-02T06:12:55;94585.28;;;2.82;75.05
3968;BME280;9221;42.646;23.380;2023-02-02T06:15:21;94591.72;;;2.89;75.06
3968;BME280;9221;42.646;23.380;2023-02-02T06:17:46;94529.94;;;2.40;74.84
3968;BME280;9221;42.646;23.380;2023-02-02T06:20:12;94601.72;;;2.29;76.55
3968;BME280;9221;42.646;23.380;2023-02-02T06:22:38;94556.19;;;1.55;78.65
3968;BME280;9221;42.646;23.380;2023-02-02T06:25:03;94540.53;;;1.42;79.53
3968;BME280;9221;42.646;23.380;2023-02-02T06:27:30;94555.75;;;1.48;79.71
3968;BME280;9221;42.646;23.380;2023-02-02T06:29:55;94548.31;;;1.56;79.72
3968;BME280;9221;42.646;23.380;2023-02-02T06:32:21;94642.84;;;1.82;80.33
3968;BME280;9221;42.646;23.380;2023-02-02T06:34:46;94557.53;;;1.33;80.63
3968;BME280;9221;42.646;23.380;2023-02-02T06:37:11;94623.06;;;1.80;80.72
3968;BME280;9221;42.646;23.380;2023-02-02T06:39:37;94597.19;;;1.64;80.57
3968;BME280;9221;42.646;23.380;2023-02-02T06:42:02;94557.94;;;1.68;79.67
3968;BME280;9221;42.646;23.380;2023-02-02T06:44:28;94662.53;;;2.14;79.55
3968;BME280;9221;42.646;23.380;2023-02-02T06:46:53;94568.03;;;2.00;78.84
3968;BME280;9221;42.646;23.380;2023-02-02T06:49:19;94627.53;;;2.73;78.30
3968;BME280;9221;42.646;23.380;2023-02-02T06:51:46;94609.59;;;2.55;77.00
3968;BME280;9221;42.646;23.380;2023-02-02T06:54:12;94672.66;;;2.46;77.33
3968;BME280;9221;42.646;23.380;2023-02-02T06:56:37;94627.84;;;2.28;78.15
3968;BME280;9221;42.646;23.380;2023-02-02T06:59:02;94628.34;;;2.60;77.96
3968;BME280;9221;42.646;23.380;2023-02-02T07:01:28;94652.03;;;2.43;77.09
3968;BME280;9221;42.646;23.380;2023-02-02T07:03:53;94639.28;;;2.25;77.32
3968;BME280;9221;42.646;23.380;2023-02-02T07:06:21;94625.63;;;2.49;77.96
3968;BME280;9221;42.646;23.380;2023-02-02T07:08:48;94659.22;;;2.79;77.03
3968;BME280;9221;42.646;23.380;2023-02-02T07:11:15;94711.31;;;2.92;77.11
3968;BME280;9221;42.646;23.380;2023-02-02T07:13:41;94579.28;;;2.54;76.07
3968;BME280;9221;42.646;23.380;2023-02-02T07:16:06;94566.69;;;2.48;76.21
3968;BME280;9221;42.646;23.380;2023-02-02T07:18:34;94664.44;;;2.92;75.98
3968;BME280;9221;42.646;23.380;2023-02-02T07:21:01;94633.81;;;3.09;75.81
3968;BME280;9221;42.646;23.380;2023-02-02T07:23:27;94571.09;;;2.86;75.30
3968;BME280;9221;42.646;23.380;2023-02-02T07:26:03;94630.69;;;3.29;74.74
3968;BME280;9221;42.646;23.380;2023-02-02T07:28:29;94645.38;;;3.30;74.53
3968;BME280;9221;42.646;23.380;2023-02-02T07:30:55;94631.53;;;3.30;74.13
3968;BME280;9221;42.646;23.380;2023-02-02T07:33:20;94596.03;;;2.50;76.05
3968;BME280;9221;42.646;23.380;2023-02-02T07:35:45;94597.72;;;2.51;76.77
3968;BME280;9221;42.646;23.380;2023-02-02T07:38:11;94630.78;;;2.89;76.43
3968;BME280;9221;42.646;23.380;2023-02-02T07:40:36;94683.19;;;3.10;76.46
3968;BME280;9221;42.646;23.380;2023-02-02T07:43:01;94682.81;;;3.03;76.89
3968;BME280;9221;42.646;23.380;2023-02-02T07:45:28;94655.28;;;3.51;75.99
3968;BME280;9221;42.646;23.380;2023-02-02T07:47:56;94584.88;;;3.51;73.99
3968;BME280;9221;42.646;23.380;2023-02-02T07:50:22;94585.75;;;3.76;72.62
3968;BME280;9221;42.646;23.380;2023-02-02T07:52:47;94563.69;;;3.68;72.09
3968;BME280;9221;42.646;23.380;2023-02-02T07:55:13;94609.16;;;4.01;72.47
3968;BME280;9221;42.646;23.380;2023-02-02T07:57:38;94610.78;;;4.39;72.97
3968;BME280;9221;42.646;23.380;2023-02-02T08:00:04;94610.59;;;4.89;70.99
3968;BME280;9221;42.646;23.380;2023-02-02T08:02:30;94642.63;;;5.27;69.25
3968;BME280;9221;42.646;23.380;2023-02-02T08:04:55;94543.16;;;5.17;67.70
3968;BME280;9221;42.646;23.380;2023-02-02T08:07:20;94645.34;;;6.71;64.91
3968;BME280;9221;42.646;23.380;2023-02-02T08:09:49;94645.09;;;7.59;61.64
3968;BME280;9221;42.646;23.380;2023-02-02T08:12:15;94582.31;;;8.47;59.25
3968;BME280;9221;42.646;23.380;2023-02-02T08:14:40;94602.72;;;9.31;56.47
3968;BME280;9221;42.646;23.380;2023-02-02T08:17:06;94550.34;;;9.38;54.50
3968;BME280;9221;42.646;23.380;2023-02-02T08:19:32;94498.50;;;9.48;52.50
3968;BME280;9221;42.646;23.380;2023-02-02T08:21:57;94526.16;;;10.08;50.96
3968;BME280;9221;42.646;23.380;2023-02-02T08:24:22;94552.53;;;9.80;50.99
3968;BME280;9221;42.646;23.380;2023-02-02T08:26:48;94591.25;;;9.70;52.35
3968;BME280;9221;42.646;23.380;2023-02-02T08:29:13;94539.25;;;8.97;53.88
3968;BME280;9221;42.646;23.380;2023-02-02T08:31:42;94600.25;;;9.30;54.24
3968;BME280;9221;42.646;23.380;2023-02-02T08:34:09;94581.09;;;9.47;54.38
3968;BME280;9221;42.646;23.380;2023-02-02T08:36:35;94527.84;;;9.54;52.21
3968;BME280;9221;42.646;23.380;2023-02-02T08:39:03;94606.97;;;10.45;51.55
3968;BME280;9221;42.646;23.380;2023-02-02T08:41:30;94558.19;;;11.04;49.66
3968;BME280;9221;42.646;23.380;2023-02-02T08:43:56;94523.41;;;11.08;48.68
3968;BME280;9221;42.646;23.380;2023-02-02T08:46:22;94408.34;;;9.64;48.40
3968;BME280;9221;42.646;23.380;2023-02-02T08:48:48;94560.13;;;9.83;50.90
3968;BME280;9221;42.646;23.380;2023-02-02T08:51:16;94504.84;;;8.22;53.52
3968;BME280;9221;42.646;23.380;2023-02-02T08:53:42;94610.03;;;7.70;57.10
3968;BME280;9221;42.646;23.380;2023-02-02T08:56:13;94639.63;;;8.22;56.26
3968;BME280;9221;42.646;23.380;2023-02-02T08:58:39;94613.78;;;8.18;56.05
3968;BME280;9221;42.646;23.380;2023-02-02T09:01:17;94560.16;;;7.29;57.90
3968;BME280;9221;42.646;23.380;2023-02-02T09:03:43;94557.25;;;7.01;59.89
3968;BME280;9221;42.646;23.380;2023-02-02T09:06:14;94562.88;;;7.18;60.74
3968;BME280;9221;42.646;23.380;2023-02-02T09:08:40;94546.31;;;7.27;59.73
3968;BME280;9221;42.646;23.380;2023-02-02T09:11:11;94559.09;;;7.41;59.84
3968;BME280;9221;42.646;23.380;2023-02-02T09:13:38;94564.41;;;6.99;60.52
3968;BME280;9221;42.646;23.380;2023-02-02T09:16:06;94601.09;;;6.99;60.45
3968;BME280;9221;42.646;23.380;2023-02-02T09:18:32;94543.53;;;7.19;60.01
3968;BME280;9221;42.646;23.380;2023-02-02T09:20:59;94590.69;;;7.09;59.29
3968;BME280;9221;42.646;23.380;2023-02-02T09:23:25;94422.88;;;5.72;62.24
3968;BME280;9221;42.646;23.380;2023-02-02T09:25:50;94547.84;;;6.56;61.74
3968;BME280;9221;42.646;23.380;2023-02-02T09:28:16;94533.78;;;6.57;62.57
3968;BME280;9221;42.646;23.380;2023-02-02T09:30:41;94566.75;;;7.02;61.64
3968;BME280;9221;42.646;23.380;2023-02-02T09:33:07;94541.69;;;7.40;61.01
3968;BME280;9221;42.646;23.380;2023-02-02T09:35:32;94545.97;;;7.72;59.47
3968;BME280;9221;42.646;23.380;2023-02-02T09:37:57;94456.94;;;7.50;59.26
3968;BME280;9221;42.646;23.380;2023-02-02T09:40:23;94485.16;;;7.57;58.33
3968;BME280;9221;42.646;23.380;2023-02-02T09:43:07;94517.84;;;8.13;58.68
3968;BME280;9221;42.646;23.380;2023-02-02T09:45:50;94538.09;;;9.57;55.56
3968;BME280;9221;42.646;23.380;2023-02-02T09:48:47;94539.97;;;9.37;54.57
3968;BME280;9221;42.646;23.380;2023-02-02T09:51:18;94473.06;;;9.39;54.09
3968;BME280;9221;42.646;23.380;2023-02-02T09:53:59;94410.09;;;9.56;52.39
3968;BME280;9221;42.646;23.380;2023-02-02T09:56:31;94501.41;;;10.01;51.95
3968;BME280;9221;42.646;23.380;2023-02-02T09:59:00;94518.31;;;9.80;51.91
3968;BME280;9221;42.646;23.380;2023-02-02T10:01:35;94542.38;;;9.58;53.34
3968;BME280;9221;42.646;23.380;2023-02-02T10:04:08;94504.41;;;9.60;52.66
3968;BME280;9221;42.646;23.380;2023-02-02T10:14:51;94592.78;;;8.37;55.56
3968;BME280;9221;42.646;23.380;2023-02-02T10:19:54;94585.41;;;7.61;58.00
3968;BME280;9221;42.646;23.380;2023-02-02T10:22:23;94476.44;;;7.67;58.09
3968;BME280;9221;42.646;23.380;2023-02-02T10:24:52;94454.78;;;7.74;58.65
3968;BME280;9221;42.646;23.380;2023-02-02T10:27:36;94499.28;;;7.86;57.21
3968;BME280;9221;42.646;23.380;2023-02-02T10:30:15;94501.94;;;8.25;56.82
3968;BME280;9221;42.646;23.380;2023-02-02T10:33:01;94392.84;;;8.21;56.30
3968;BME280;9221;42.646;23.380;2023-02-02T10:35:32;94476.00;;;8.98;54.71
3968;BME280;9221;42.646;23.380;2023-02-02T10:40:46;94415.56;;;9.17;50.20
3968;BME280;9221;42.646;23.380;2023-02-02T10:46:51;94448.31;;;9.96;48.05
3968;BME280;9221;42.646;23.380;2023-02-02T10:49:23;94472.41;;;10.19;48.12
3968;BME280;9221;42.646;23.380;2023-02-02T10:56:58;94419.47;;;10.30;45.28
3968;BME280;9221;42.646;23.380;2023-02-02T10:59:31;94421.22;;;10.22;45.09
3968;BME280;9221;42.646;23.380;2023-02-02T11:01:57;94354.13;;;9.90;44.30
3968;BME280;9221;42.646;23.380;2023-02-02T11:04:23;94352.53;;;9.79;44.67
3968;BME280;9221;42.646;23.380;2023-02-02T11:07:09;94437.78;;;10.32;44.65
3968;BME280;9221;42.646;23.380;2023-02-02T11:09:39;94389.66;;;10.30;44.34
3968;BME280;9221;42.646;23.380;2023-02-02T11:12:22;94433.59;;;10.39;44.70
3968;BME280;9221;42.646;23.380;2023-02-02T11:15:06;94398.63;;;10.37;44.06
3968;BME280;9221;42.646;23.380;2023-02-02T11:17:32;94333.97;;;9.80;44.16
3968;BME280;9221;42.646;23.380;2023-02-02T11:19:59;94324.94;;;9.65;44.03
3968;BME280;9221;42.646;23.380;2023-02-02T11:22:33;94444.25;;;9.83;43.97
3968;BME280;9221;42.646;23.380;2023-02-02T11:25:26;94377.22;;;9.78;44.51
3968;BME280;9221;42.646;23.380;2023-02-02T11:27:56;94386.00;;;9.87;44.25
3968;BME280;9221;42.646;23.380;2023-02-02T11:30:33;94359.59;;;9.78;43.85
3968;BME280;9221;42.646;23.380;2023-02-02T11:33:19;94352.41;;;9.80;43.63
3968;BME280;9221;42.646;23.380;2023-02-02T11:35:53;94362.53;;;9.75;43.65
3968;BME280;9221;42.646;23.380;2023-02-02T11:38:19;94295.75;;;9.40;43.50
3968;BME280;9221;42.646;23.380;2023-02-02T11:43:33;94382.09;;;9.91;42.86
3968;BME280;9221;42.646;23.380;2023-02-02T11:46:03;94287.66;;;9.52;42.67
3968;BME280;9221;42.646;23.380;2023-02-02T11:48:35;94380.47;;;9.90;43.08
3968;BME280;9221;42.646;23.380;2023-02-02T11:51:02;94335.97;;;9.69;43.25
3968;BME280;9221;42.646;23.380;2023-02-02T11:53:32;94289.59;;;9.49;42.56
3968;BME280;9221;42.646;23.380;2023-02-02T11:56:01;94331.06;;;9.92;42.90
3968;BME280;9221;42.646;23.380;2023-02-02T11:58:50;94327.31;;;9.94;43.04
3968;BME280;9221;42.646;23.380;2023-02-02T12:01:32;94285.00;;;9.70;43.08
3968;BME280;9221;42.646;23.380;2023-02-02T12:04:20;94289.56;;;9.68;42.94
3968;BME280;9221;42.646;23.380;2023-02-02T12:06:47;94349.75;;;9.80;42.35
3968;BME280;9221;42.646;23.380;2023-02-02T12:09:20;94355.25;;;9.87;42.02
3968;BME280;9221;42.646;23.380;2023-02-02T12:12:05;94300.81;;;9.52;42.70
3968;BME280;9221;42.646;23.380;2023-02-02T12:17:44;94382.94;;;9.91;42.54
3968;BME280;9221;42.646;23.380;2023-02-02T12:30:50;94321.44;;;9.82;43.34
3968;BME280;9221;42.646;23.380;2023-02-02T12:42:18;94220.50;;;9.11;43.11
3968;BME280;9221;42.646;23.380;2023-02-02T12:47:47;94346.75;;;9.75;43.44
3968;BME280;9221;42.646;23.380;2023-02-02T12:53:15;94283.28;;;9.24;43.14
3968;BME280;9221;42.646;23.380;2023-02-02T12:58:43;94300.94;;;9.32;43.44
3968;BME280;9221;42.646;23.380;2023-02-02T13:09:14;94269.97;;;9.26;43.79
3968;BME280;9221;42.646;23.380;2023-02-02T13:11:50;94285.16;;;9.50;44.23
3968;BME280;9221;42.646;23.380;2023-02-02T13:14:25;94287.19;;;9.38;43.77
3968;BME280;9221;42.646;23.380;2023-02-02T13:16:58;94310.06;;;9.56;43.71
3968;BME280;9221;42.646;23.380;2023-02-02T13:22:03;94345.38;;;9.71;43.19
3968;BME280;9221;42.646;23.380;2023-02-02T13:24:32;94303.03;;;9.64;43.50
3968;BME280;9221;42.646;23.380;2023-02-02T13:27:01;94215.94;;;9.13;43.19
3968;BME280;9221;42.646;23.380;2023-02-02T13:29:43;94320.63;;;9.82;43.43
3968;BME280;9221;42.646;23.380;2023-02-02T13:32:18;94349.97;;;9.87;43.65
3968;BME280;9221;42.646;23.380;2023-02-02T13:39:48;94172.19;;;8.94;43.30
3968;BME280;9221;42.646;23.380;2023-02-02T13:42:36;94270.09;;;9.60;43.15
3968;BME280;9221;42.646;23.380;2023-02-02T13:48:24;94323.72;;;9.41;43.09
3968;BME280;9221;42.646;23.380;2023-02-02T13:58:14;94253.97;;;8.73;43.21
3968;BME280;9221;42.646;23.380;2023-02-02T14:00:19;94357.28;;;9.39;43.48
3968;BME280;9221;42.646;23.380;2023-02-02T14:02:51;94318.06;;;9.36;44.09
3968;BME280;9221;42.646;23.380;2023-02-02T14:05:23;94316.78;;;9.40;44.61
3968;BME280;9221;42.646;23.380;2023-02-02T14:07:55;94351.16;;;9.39;44.41
3968;BME280;9221;42.646;23.380;2023-02-02T14:10:24;94266.22;;;9.10;44.52
3968;BME280;9221;42.646;23.380;2023-02-02T14:12:51;94302.25;;;9.46;46.09
3968;BME280;9221;42.646;23.380;2023-02-02T14:15:17;94310.31;;;9.53;46.96
3968;BME280;9221;42.646;23.380;2023-02-02T14:26:08;94328.25;;;9.31;48.64
3968;BME280;9221;42.646;23.380;2023-02-02T14:28:43;94296.41;;;9.06;49.59
3968;BME280;9221;42.646;23.380;2023-02-02T14:45:25;94353.84;;;8.45;54.36
3968;BME280;9221;42.646;23.380;2023-02-02T14:47:53;94361.06;;;8.14;56.15
3968;BME280;9221;42.646;23.380;2023-02-02T14:56:05;94487.66;;;7.28;71.29
3968;BME280;9221;42.646;23.380;2023-02-02T14:58:35;94461.81;;;6.83;76.57
3968;BME280;9221;42.646;23.380;2023-02-02T15:06:35;94467.28;;;5.51;84.08
3968;BME280;9221;42.646;23.380;2023-02-02T15:25:30;94569.47;;;4.33;89.94
3968;BME280;9221;42.646;23.380;2023-02-02T15:28:19;94564.47;;;4.30;89.98
3968;BME280;9221;42.646;23.380;2023-02-02T15:30:51;94532.78;;;3.99;90.05
3968;BME280;9221;42.646;23.380;2023-02-02T15:33:51;94578.03;;;4.47;90.61
3968;BME280;9221;42.646;23.380;2023-02-02T15:38:53;94522.97;;;3.79;90.89
3968;BME280;9221;42.646;23.380;2023-02-02T15:41:46;94589.19;;;4.13;91.94
3968;BME280;9221;42.646;23.380;2023-02-02T15:44:21;94515.25;;;3.53;91.89
3968;BME280;9221;42.646;23.380;2023-02-02T15:46:51;94512.81;;;3.50;92.10
3968;BME280;9221;42.646;23.380;2023-02-02T15:51:48;94639.97;;;3.96;92.59
3968;BME280;9221;42.646;23.380;2023-02-02T15:54:22;94594.38;;;3.89;92.07
3968;BME280;9221;42.646;23.380;2023-02-02T15:56:49;94529.56;;;3.34;92.64
3968;BME280;9221;42.646;23.380;2023-02-02T15:59:21;94479.41;;;3.07;92.28
3968;BME280;9221;42.646;23.380;2023-02-02T16:02:01;94639.59;;;3.77;92.75